createdAt,value
2017-10-08T00:00:30.070Z,95.91
2017-10-08T00:02:57.478Z,96.04
2017-10-08T00:05:24.905Z,96.00
2017-10-08T00:07:52.315Z,95.95
2017-10-08T00:10:19.726Z,96.16
2017-10-08T00:12:47.142Z,95.93
2017-10-08T00:15:14.577Z,95.66
2017-10-08T00:17:41.963Z,95.87
2017-10-08T00:20:09.379Z,95.71
2017-10-08T00:22:36.799Z,95.71
2017-10-08T00:25:04.204Z,95.68
2017-10-08T00:27:31.663Z,96.16
2017-10-08T00:29:59.088Z,96.23
2017-10-08T00:32:26.494Z,96.61
2017-10-08T00:34:53.936Z,96.25
2017-10-08T00:37:21.351Z,96.35
2017-10-08T00:39:48.774Z,96.07
2017-10-08T00:42:16.175Z,96.00
2017-10-08T00:44:43.599Z,95.98
2017-10-08T00:47:10.994Z,95.81
2017-10-08T00:49:38.472Z,95.68
2017-10-08T00:52:05.879Z,95.55
2017-10-08T00:54:33.271Z,95.18
2017-10-08T00:57:00.688Z,95.20
2017-10-08T00:59:28.149Z,95.30
2017-10-08T01:01:55.551Z,95.27
2017-10-08T01:04:23.008Z,95.20
2017-10-08T01:06:50.473Z,95.24
2017-10-08T01:09:17.934Z,95.41
2017-10-08T01:11:45.350Z,95.38
2017-10-08T01:14:12.759Z,95.40
2017-10-08T01:16:40.159Z,95.27
2017-10-08T01:19:07.570Z,95.19
2017-10-08T01:21:34.979Z,95.22
2017-10-08T01:24:02.393Z,95.33
2017-10-08T01:26:29.802Z,95.20
2017-10-08T01:28:57.230Z,95.26
2017-10-08T01:31:24.638Z,95.09
2017-10-08T01:33:52.074Z,95.09
2017-10-08T01:36:19.476Z,95.11
2017-10-08T01:38:46.903Z,95.10
2017-10-08T01:41:14.323Z,94.97
2017-10-08T01:43:41.733Z,94.78
2017-10-08T01:46:09.135Z,94.88
2017-10-08T01:48:36.567Z,94.90
2017-10-08T01:51:03.959Z,95.08
2017-10-08T01:53:31.386Z,95.08
2017-10-08T01:55:58.790Z,95.12
2017-10-08T01:58:26.194Z,94.89
2017-10-08T02:00:53.619Z,94.75
2017-10-08T02:03:21.116Z,94.79
2017-10-08T02:05:48.523Z,95.00
2017-10-08T02:08:15.951Z,95.16
2017-10-08T02:10:43.374Z,95.14
2017-10-08T02:13:10.790Z,94.94
2017-10-08T02:15:38.199Z,94.80
2017-10-08T02:18:05.619Z,94.62
2017-10-08T02:20:33.018Z,94.56
2017-10-08T02:23:00.422Z,94.83
2017-10-08T02:25:27.858Z,94.86
2017-10-08T02:27:55.256Z,95.00
2017-10-08T02:30:22.678Z,94.84
2017-10-08T02:32:50.092Z,94.94
2017-10-08T02:35:17.525Z,94.71
2017-10-08T02:37:44.927Z,94.59
2017-10-08T02:40:12.348Z,94.70
2017-10-08T02:42:39.746Z,94.90
2017-10-08T02:45:07.146Z,94.85
2017-10-08T02:47:34.582Z,94.56
2017-10-08T02:50:01.974Z,94.40
2017-10-08T02:52:29.389Z,94.43
2017-10-08T02:54:56.821Z,94.31
2017-10-08T02:57:24.214Z,94.26
2017-10-08T02:59:51.640Z,94.45
2017-10-08T03:02:19.059Z,94.66
2017-10-08T03:04:46.462Z,94.54
2017-10-08T03:07:13.881Z,94.77
2017-10-08T03:09:41.307Z,94.78
2017-10-08T03:12:08.719Z,94.92
2017-10-08T03:14:36.130Z,94.90
2017-10-08T03:17:03.563Z,94.68
2017-10-08T03:19:30.991Z,94.74
2017-10-08T03:21:58.399Z,94.80
2017-10-08T03:24:25.843Z,94.61
2017-10-08T03:26:53.243Z,94.86
2017-10-08T03:29:20.644Z,94.61
2017-10-08T03:31:48.076Z,94.57
2017-10-08T03:34:15.486Z,94.66
2017-10-08T03:36:42.878Z,94.48
2017-10-08T03:39:10.319Z,94.68
2017-10-08T03:41:37.749Z,94.64
2017-10-08T03:44:05.143Z,94.78
2017-10-08T03:46:32.578Z,94.77
2017-10-08T03:49:00.020Z,94.65
2017-10-08T03:51:27.409Z,94.68
2017-10-08T03:53:54.847Z,94.36
2017-10-08T03:56:22.255Z,94.31
2017-10-08T03:58:49.655Z,94.27
2017-10-08T04:01:17.068Z,94.45
2017-10-08T04:03:44.491Z,94.78
2017-10-08T04:06:11.901Z,94.96
2017-10-08T04:08:39.316Z,94.94
2017-10-08T04:11:06.715Z,94.97
2017-10-08T04:13:34.129Z,94.58
2017-10-08T04:16:01.552Z,94.61
2017-10-08T04:18:28.971Z,94.35
2017-10-08T04:20:56.374Z,94.54
2017-10-08T04:23:23.795Z,94.65
2017-10-08T04:25:51.194Z,94.90
2017-10-08T04:28:18.606Z,94.89
2017-10-08T04:30:46.033Z,94.50
2017-10-08T04:33:13.448Z,94.58
2017-10-08T04:35:40.856Z,94.51
2017-10-08T04:38:08.275Z,94.51
2017-10-08T04:40:35.686Z,94.51
2017-10-08T04:43:03.105Z,94.68
2017-10-08T04:45:30.517Z,94.77
2017-10-08T04:47:57.928Z,94.48
2017-10-08T04:50:25.335Z,94.21
2017-10-08T04:52:52.816Z,94.29
2017-10-08T04:55:20.211Z,94.43
2017-10-08T04:57:47.626Z,94.48
2017-10-08T05:00:15.044Z,94.36
2017-10-08T05:02:42.448Z,94.29
2017-10-08T05:05:09.881Z,94.13
2017-10-08T05:07:37.300Z,94.30
2017-10-08T05:10:04.744Z,94.26
2017-10-08T05:12:32.131Z,94.32
2017-10-08T05:14:59.563Z,94.27
2017-10-08T05:17:26.971Z,94.80
2017-10-08T05:19:54.375Z,94.65
2017-10-08T05:22:21.799Z,94.76
2017-10-08T05:24:49.204Z,94.84
2017-10-08T05:27:16.608Z,94.67
2017-10-08T05:29:44.065Z,94.73
2017-10-08T05:32:11.467Z,94.70
2017-10-08T05:34:38.882Z,94.74
2017-10-08T05:37:06.312Z,94.91
2017-10-08T05:39:33.728Z,95.23
2017-10-08T05:42:01.133Z,94.97
2017-10-08T05:44:28.565Z,94.80
2017-10-08T05:46:55.986Z,94.92
2017-10-08T05:49:23.391Z,95.08
2017-10-08T05:51:50.811Z,95.19
2017-10-08T05:54:18.239Z,95.26
2017-10-08T05:56:45.646Z,95.05
2017-10-08T05:59:13.174Z,95.04
2017-10-08T06:01:40.578Z,95.16
2017-10-08T06:04:07.974Z,95.26
2017-10-08T06:06:35.415Z,95.20
2017-10-08T06:09:02.834Z,95.01
2017-10-08T06:11:30.244Z,95.01
2017-10-08T06:13:57.761Z,94.99
2017-10-08T06:16:25.183Z,94.99
2017-10-08T06:18:52.584Z,94.73
2017-10-08T06:21:20.023Z,95.05
2017-10-08T06:23:47.434Z,94.97
2017-10-08T06:26:14.839Z,94.92
2017-10-08T06:28:42.261Z,94.91
2017-10-08T06:31:09.684Z,94.98
2017-10-08T06:33:37.115Z,94.89
2017-10-08T06:36:04.530Z,94.77
2017-10-08T06:38:31.931Z,94.75
2017-10-08T06:40:59.337Z,94.30
2017-10-08T06:43:26.767Z,94.32
2017-10-08T06:45:54.179Z,94.16
2017-10-08T06:48:21.577Z,94.14
2017-10-08T06:50:48.994Z,94.12
2017-10-08T06:53:16.400Z,94.13
2017-10-08T06:55:43.811Z,94.09
2017-10-08T06:58:11.240Z,93.73
2017-10-08T07:00:38.630Z,93.78
2017-10-08T07:03:06.028Z,93.49
2017-10-08T07:05:33.459Z,93.40
2017-10-08T07:08:00.867Z,93.26
2017-10-08T07:10:28.275Z,93.27
2017-10-08T07:12:55.703Z,93.30
2017-10-08T07:15:23.214Z,93.52
2017-10-08T07:17:50.639Z,93.53
2017-10-08T07:20:18.062Z,93.85
2017-10-08T07:22:45.485Z,93.87
2017-10-08T07:25:12.919Z,94.16
2017-10-08T07:27:40.343Z,93.79
2017-10-08T07:30:07.753Z,93.54
2017-10-08T07:32:35.167Z,93.48
2017-10-08T07:35:02.579Z,93.39
2017-10-08T07:37:30.028Z,93.48
2017-10-08T07:39:57.459Z,93.58
2017-10-08T07:42:24.926Z,93.04
2017-10-08T07:44:52.345Z,92.86
2017-10-08T07:47:19.784Z,92.90
2017-10-08T07:49:47.260Z,92.75
2017-10-08T07:52:14.663Z,92.80
2017-10-08T07:54:42.087Z,91.90
2017-10-08T07:57:09.520Z,92.47
2017-10-08T07:59:36.936Z,92.43
2017-10-08T08:02:04.335Z,92.57
2017-10-08T08:04:31.783Z,92.62
2017-10-08T08:06:59.231Z,92.39
2017-10-08T08:09:26.651Z,92.39
2017-10-08T08:11:54.079Z,92.22
2017-10-08T08:14:21.479Z,92.50
2017-10-08T08:16:48.894Z,92.43
2017-10-08T08:19:16.356Z,92.59
2017-10-08T08:21:43.815Z,92.66
2017-10-08T08:24:11.220Z,92.71
2017-10-08T08:26:38.645Z,92.80
2017-10-08T08:29:06.061Z,92.27
2017-10-08T08:31:35.383Z,92.16
2017-10-08T08:34:02.807Z,91.76
2017-10-08T08:36:30.214Z,91.40
2017-10-08T08:38:57.640Z,91.49
2017-10-08T08:41:25.053Z,91.02
2017-10-08T08:43:52.450Z,90.98
2017-10-08T08:46:19.996Z,91.83
2017-10-08T08:48:47.439Z,92.14
2017-10-08T08:51:14.855Z,92.33
2017-10-08T08:53:42.291Z,92.05
2017-10-08T08:56:09.735Z,91.43
2017-10-08T08:58:37.164Z,91.29
2017-10-08T09:01:05.215Z,91.60
2017-10-08T09:03:32.779Z,91.82
2017-10-08T09:06:00.184Z,90.92
2017-10-08T09:08:27.611Z,91.11
2017-10-08T09:10:55.024Z,91.11
2017-10-08T09:13:23.444Z,90.79
2017-10-08T09:15:56.133Z,90.45
2017-10-08T09:18:23.587Z,89.10
2017-10-08T09:20:51.087Z,90.36
2017-10-08T09:23:20.223Z,89.78
2017-10-08T09:25:47.703Z,89.31
2017-10-08T09:28:15.115Z,89.37
2017-10-08T09:30:42.566Z,87.03
2017-10-08T09:33:09.968Z,86.03
2017-10-08T09:35:37.394Z,84.97
2017-10-08T09:38:04.853Z,84.14
2017-10-08T09:40:32.256Z,84.61
2017-10-08T09:42:59.671Z,84.00
2017-10-08T09:45:27.091Z,84.81
2017-10-08T09:47:54.499Z,84.59
2017-10-08T09:50:21.937Z,84.50
2017-10-08T09:52:49.415Z,85.09
2017-10-08T09:55:16.854Z,84.75
2017-10-08T09:57:44.374Z,84.49
2017-10-08T10:00:15.351Z,85.00
2017-10-08T10:02:44.095Z,85.10
2017-10-08T10:05:11.527Z,85.53
2017-10-08T10:07:40.731Z,85.40
2017-10-08T10:10:08.144Z,86.64
2017-10-08T10:12:35.558Z,84.61
2017-10-08T10:15:11.616Z,84.23
2017-10-08T10:17:39.085Z,80.99
2017-10-08T10:20:06.519Z,78.60
2017-10-08T10:22:33.963Z,78.71
2017-10-08T10:25:01.388Z,75.57
2017-10-08T10:27:29.735Z,75.34
2017-10-08T10:30:03.611Z,75.96
2017-10-08T10:32:31.047Z,77.41
2017-10-08T10:34:58.543Z,79.35
2017-10-08T10:37:25.956Z,80.59
2017-10-08T10:39:53.359Z,82.30
2017-10-08T10:42:20.775Z,83.81
2017-10-08T10:44:48.218Z,85.59
2017-10-08T10:47:16.391Z,85.25
2017-10-08T10:49:44.579Z,84.77
2017-10-08T10:52:12.931Z,84.67
2017-10-08T10:54:41.495Z,83.58
2017-10-08T10:57:08.907Z,82.65
2017-10-08T10:59:37.204Z,82.89
2017-10-08T11:02:04.607Z,83.44
2017-10-08T11:04:32.016Z,82.94
2017-10-08T11:06:59.464Z,82.40
2017-10-08T11:09:26.874Z,81.48
2017-10-08T11:11:54.303Z,82.16
2017-10-08T11:14:21.782Z,81.77
2017-10-08T11:16:49.176Z,81.42
2017-10-08T11:19:16.589Z,79.58
2017-10-08T11:21:44.020Z,79.90
2017-10-08T11:24:11.416Z,77.23
2017-10-08T11:26:38.812Z,76.91
2017-10-08T11:29:06.230Z,76.80
2017-10-08T11:31:33.631Z,76.29
2017-10-08T11:34:01.047Z,75.81
2017-10-08T11:36:28.481Z,77.87
2017-10-08T11:38:55.872Z,76.14
2017-10-08T11:41:23.267Z,74.23
2017-10-08T11:43:50.704Z,75.78
2017-10-08T11:46:18.108Z,75.95
2017-10-08T11:48:45.538Z,74.74
2017-10-08T11:51:12.951Z,75.61
2017-10-08T11:53:40.351Z,74.04
2017-10-08T11:56:07.759Z,74.71
2017-10-08T11:58:35.171Z,74.29
2017-10-08T12:01:02.623Z,72.96
2017-10-08T12:03:30.061Z,73.58
2017-10-08T12:05:57.480Z,74.27
2017-10-08T12:08:24.890Z,72.85
2017-10-08T12:10:52.286Z,71.15
2017-10-08T12:13:19.705Z,70.78
2017-10-08T12:15:47.146Z,72.14
2017-10-08T12:18:14.557Z,73.07
2017-10-08T12:20:41.989Z,73.62
2017-10-08T12:23:09.423Z,72.91
2017-10-08T12:25:36.815Z,72.22
2017-10-08T12:28:04.224Z,73.20
2017-10-08T12:30:31.644Z,74.07
2017-10-08T12:32:59.030Z,74.94
2017-10-08T12:35:26.504Z,76.11
2017-10-08T12:37:53.925Z,76.88
2017-10-08T12:40:21.323Z,77.89
2017-10-08T12:42:48.747Z,80.00
2017-10-08T12:45:16.201Z,80.49
2017-10-08T12:47:43.598Z,82.62
2017-10-08T12:50:11.015Z,84.06
2017-10-08T12:52:38.425Z,86.84
2017-10-08T12:55:06.653Z,88.41
2017-10-08T12:57:34.359Z,90.39
2017-10-08T13:00:01.896Z,90.98
2017-10-08T13:02:29.307Z,90.99
2017-10-08T13:04:56.731Z,91.86
2017-10-08T13:07:24.371Z,90.48
2017-10-08T13:09:51.792Z,91.11
2017-10-08T13:12:19.247Z,91.17
2017-10-08T13:14:46.661Z,90.84
2017-10-08T13:17:14.066Z,90.03
2017-10-08T13:19:41.828Z,89.87
2017-10-08T13:22:09.225Z,89.09
2017-10-08T13:24:36.633Z,88.54
2017-10-08T13:27:04.048Z,88.79
2017-10-08T13:29:31.456Z,88.37
2017-10-08T13:31:58.876Z,88.65
2017-10-08T13:34:26.291Z,88.70
2017-10-08T13:36:53.716Z,87.98
2017-10-08T13:39:21.139Z,87.72
2017-10-08T13:41:48.591Z,87.16
2017-10-08T13:44:15.993Z,87.18
2017-10-08T13:46:43.437Z,86.79
2017-10-08T13:49:10.890Z,86.79
2017-10-08T13:51:38.338Z,85.84
2017-10-08T13:54:05.734Z,86.38
2017-10-08T13:56:33.162Z,86.32
2017-10-08T13:59:00.575Z,84.97
2017-10-08T14:01:27.988Z,85.59
2017-10-08T14:03:55.415Z,84.74
2017-10-08T14:06:22.811Z,84.97
2017-10-08T14:08:50.268Z,84.94
2017-10-08T14:11:17.705Z,84.43
2017-10-08T14:13:45.111Z,83.67
2017-10-08T14:16:12.531Z,82.71
2017-10-08T14:18:39.935Z,81.86
2017-10-08T14:21:07.490Z,81.71
2017-10-08T14:23:34.938Z,79.98
2017-10-08T14:26:02.375Z,80.65
2017-10-08T14:28:29.821Z,80.62
2017-10-08T14:30:57.235Z,80.09
2017-10-08T14:33:24.651Z,80.91
2017-10-08T14:35:53.150Z,79.85
2017-10-08T14:38:21.844Z,79.51
2017-10-08T14:40:50.007Z,79.31
2017-10-08T14:43:18.280Z,80.12
2017-10-08T14:45:45.667Z,79.98
2017-10-08T14:48:13.103Z,79.88
2017-10-08T14:50:41.491Z,80.37
2017-10-08T14:53:08.919Z,80.24
2017-10-08T14:55:36.339Z,79.67
2017-10-08T14:58:03.747Z,79.47
2017-10-08T15:00:31.144Z,80.20
2017-10-08T15:03:02.115Z,80.14
2017-10-08T15:05:29.507Z,79.80
2017-10-08T15:07:56.911Z,79.11
2017-10-08T15:10:24.390Z,80.31
2017-10-08T15:12:52.665Z,80.01
2017-10-08T15:15:34.959Z,80.84
2017-10-08T15:18:02.436Z,80.22
2017-10-08T15:20:29.832Z,80.77
2017-10-08T15:22:57.258Z,80.68
2017-10-08T15:25:24.660Z,81.16
2017-10-08T15:27:53.187Z,80.64
2017-10-08T15:30:20.614Z,80.69
2017-10-08T15:32:48.019Z,81.34
2017-10-08T15:35:15.414Z,80.43
2017-10-08T15:37:42.835Z,80.00
2017-10-08T15:40:10.227Z,80.18
2017-10-08T15:42:37.650Z,80.78
2017-10-08T15:45:06.539Z,81.13
2017-10-08T15:47:33.983Z,81.48
2017-10-08T15:50:01.371Z,80.81
2017-10-08T15:52:29.824Z,79.90
2017-10-08T15:54:57.235Z,79.96
2017-10-08T15:57:24.643Z,79.77
2017-10-08T15:59:52.062Z,80.19
2017-10-08T16:02:19.464Z,80.08
2017-10-08T16:04:46.889Z,80.38
2017-10-08T16:07:14.323Z,80.34
2017-10-08T16:09:41.788Z,80.69
2017-10-08T16:12:09.191Z,80.65
2017-10-08T16:14:36.618Z,81.16
2017-10-08T16:17:04.019Z,81.63
2017-10-08T16:19:31.424Z,80.17
2017-10-08T16:21:58.848Z,79.75
2017-10-08T16:24:26.239Z,80.59
2017-10-08T16:26:54.160Z,80.71
2017-10-08T16:29:21.562Z,81.00
2017-10-08T16:31:48.964Z,81.42
2017-10-08T16:34:16.812Z,81.44
2017-10-08T16:36:44.227Z,81.31
2017-10-08T16:39:11.615Z,81.05
2017-10-08T16:41:39.015Z,81.55
2017-10-08T16:44:06.438Z,81.29
2017-10-08T16:46:33.823Z,81.39
2017-10-08T16:49:01.460Z,82.06
2017-10-08T16:51:28.860Z,82.46
2017-10-08T16:53:56.268Z,82.62
2017-10-08T16:56:23.666Z,82.65
2017-10-08T16:58:51.076Z,82.98
2017-10-08T17:01:18.489Z,83.42
2017-10-08T17:03:47.845Z,83.37
2017-10-08T17:06:15.256Z,82.44
2017-10-08T17:08:42.652Z,82.36
2017-10-08T17:11:10.059Z,82.67
2017-10-08T17:13:37.463Z,82.80
2017-10-08T17:16:04.859Z,83.59
2017-10-08T17:18:32.267Z,83.62
2017-10-08T17:20:59.783Z,83.81
2017-10-08T17:23:27.192Z,84.04
2017-10-08T17:25:54.595Z,84.08
2017-10-08T17:28:22.019Z,84.12
2017-10-08T17:30:49.420Z,83.47
2017-10-08T17:33:16.838Z,83.55
2017-10-08T17:35:44.247Z,83.96
2017-10-08T17:38:11.648Z,84.37
2017-10-08T17:40:39.050Z,84.61
2017-10-08T17:43:06.465Z,84.75
2017-10-08T17:45:33.859Z,84.90
2017-10-08T17:48:01.264Z,85.18
2017-10-08T17:50:28.740Z,85.35
2017-10-08T17:52:56.144Z,85.51
2017-10-08T17:55:23.556Z,85.66
2017-10-08T17:57:50.992Z,85.80
2017-10-08T18:00:18.403Z,86.12
2017-10-08T18:02:45.811Z,86.30
2017-10-08T18:05:13.247Z,86.42
2017-10-08T18:07:40.654Z,86.44
2017-10-08T18:10:08.077Z,86.41
2017-10-08T18:12:35.508Z,86.31
2017-10-08T18:15:02.920Z,86.40
2017-10-08T18:17:30.349Z,86.48
2017-10-08T18:19:57.761Z,86.51
2017-10-08T18:22:25.172Z,86.45
2017-10-08T18:24:52.587Z,86.23
2017-10-08T18:27:20.035Z,86.34
2017-10-08T18:29:47.444Z,86.03
2017-10-08T18:32:14.854Z,86.12
2017-10-08T18:34:42.268Z,86.29
2017-10-08T18:37:09.671Z,86.55
2017-10-08T18:39:37.080Z,86.66
2017-10-08T18:42:04.504Z,86.59
2017-10-08T18:44:31.960Z,86.09
2017-10-08T18:46:59.385Z,86.10
2017-10-08T18:49:26.812Z,86.21
2017-10-08T18:51:54.217Z,86.40
2017-10-08T18:54:21.651Z,86.57
2017-10-08T18:56:49.155Z,86.63
2017-10-08T18:59:16.559Z,86.10
2017-10-08T19:01:44.028Z,86.14
2017-10-08T19:04:11.456Z,86.25
2017-10-08T19:06:38.879Z,86.45
2017-10-08T19:09:06.323Z,86.63
2017-10-08T19:11:33.743Z,86.72
2017-10-08T19:14:01.176Z,86.89
2017-10-08T19:16:28.589Z,86.95
2017-10-08T19:18:55.995Z,87.05
2017-10-08T19:21:23.405Z,87.14
2017-10-08T19:23:50.804Z,87.22
2017-10-08T19:26:18.211Z,87.34
2017-10-08T19:28:45.626Z,87.46
2017-10-08T19:31:13.033Z,87.73
2017-10-08T19:33:40.459Z,88.16
2017-10-08T19:36:07.859Z,88.24
2017-10-08T19:38:35.272Z,88.38
2017-10-08T19:41:02.695Z,88.48
2017-10-08T19:43:30.099Z,88.44
2017-10-08T19:45:57.499Z,88.47
2017-10-08T19:48:24.939Z,88.48
2017-10-08T19:50:52.347Z,88.48
2017-10-08T19:53:19.751Z,88.46
2017-10-08T19:55:47.171Z,88.56
2017-10-08T19:58:14.575Z,88.60
2017-10-08T20:00:41.975Z,88.79
2017-10-08T20:03:09.387Z,88.90
2017-10-08T20:05:36.787Z,88.84
2017-10-08T20:08:04.192Z,89.29
2017-10-08T20:10:31.607Z,89.49
2017-10-08T20:12:58.999Z,89.55
2017-10-08T20:15:26.403Z,89.50
2017-10-08T20:17:53.840Z,89.75
2017-10-08T20:20:21.256Z,90.75
2017-10-08T20:22:48.655Z,90.59
2017-10-08T20:25:16.084Z,90.50
2017-10-08T20:27:44.379Z,90.67
2017-10-08T20:30:11.786Z,90.69
2017-10-08T20:32:39.211Z,90.34
2017-10-08T20:35:07.451Z,90.03
2017-10-08T20:37:34.860Z,89.85
2017-10-08T20:40:02.301Z,89.96
2017-10-08T20:42:29.695Z,89.81
2017-10-08T20:44:57.103Z,89.80
2017-10-08T20:47:24.515Z,89.92
2017-10-08T20:49:51.937Z,90.41
2017-10-08T20:52:19.338Z,90.68
2017-10-08T20:54:46.751Z,91.53
2017-10-08T20:57:14.151Z,91.61
2017-10-08T20:59:41.557Z,91.70
2017-10-08T21:02:08.983Z,91.47
2017-10-08T21:04:36.379Z,91.79
2017-10-08T21:07:03.780Z,91.60
2017-10-08T21:09:31.192Z,91.35
2017-10-08T21:11:58.608Z,90.98
2017-10-08T21:14:25.999Z,90.92
2017-10-08T21:16:53.415Z,90.76
2017-10-08T21:19:20.811Z,90.98
2017-10-08T21:21:48.212Z,91.01
2017-10-08T21:24:15.633Z,90.91
2017-10-08T21:26:43.039Z,90.74
2017-10-08T21:29:10.439Z,90.60
2017-10-08T21:31:37.858Z,90.63
2017-10-08T21:34:05.259Z,91.20
2017-10-08T21:36:32.676Z,91.15
2017-10-08T21:39:00.146Z,91.04
2017-10-08T21:41:27.534Z,91.08
2017-10-08T21:43:54.938Z,91.00
2017-10-08T21:46:22.354Z,90.87
2017-10-08T21:48:49.765Z,90.71
2017-10-08T21:51:17.168Z,90.64
2017-10-08T21:53:44.588Z,90.73
2017-10-08T21:56:12.797Z,90.75
2017-10-08T21:58:40.203Z,90.72
2017-10-08T22:01:12.418Z,90.67
2017-10-08T22:03:39.825Z,90.70
2017-10-08T22:06:07.227Z,90.71
2017-10-08T22:08:34.642Z,90.73
2017-10-08T22:11:02.043Z,90.71
2017-10-08T22:13:29.443Z,90.72
2017-10-08T22:15:56.863Z,90.81
2017-10-08T22:18:24.263Z,90.83
2017-10-08T22:20:51.660Z,90.79
2017-10-08T22:23:19.076Z,90.72
2017-10-08T22:25:46.472Z,90.77
2017-10-08T22:28:13.875Z,90.82
2017-10-08T22:30:41.297Z,90.83
2017-10-08T22:33:08.696Z,90.45
2017-10-08T22:35:36.101Z,90.44
2017-10-08T22:38:03.517Z,90.42
2017-10-08T22:40:30.931Z,90.51
2017-10-08T22:42:58.338Z,90.52
2017-10-08T22:45:25.748Z,90.54
2017-10-08T22:47:53.152Z,90.58
2017-10-08T22:50:20.551Z,90.62
2017-10-08T22:52:47.972Z,90.60
2017-10-08T22:55:15.367Z,90.56
2017-10-08T22:57:42.791Z,90.54
2017-10-08T23:00:10.204Z,90.57
2017-10-08T23:02:37.604Z,90.62
2017-10-08T23:05:05.007Z,90.70
2017-10-08T23:07:32.422Z,90.74
2017-10-08T23:09:59.832Z,90.68
2017-10-08T23:12:27.246Z,90.55
2017-10-08T23:14:54.663Z,90.31
2017-10-08T23:17:22.065Z,90.39
2017-10-08T23:19:49.464Z,90.43
2017-10-08T23:22:16.881Z,90.67
2017-10-08T23:24:44.294Z,90.67
2017-10-08T23:27:11.695Z,90.78
2017-10-08T23:29:39.119Z,90.75
2017-10-08T23:32:06.526Z,90.78
2017-10-08T23:34:33.923Z,90.82
2017-10-08T23:37:01.343Z,90.83
2017-10-08T23:39:28.758Z,90.83
2017-10-08T23:41:56.225Z,90.90
2017-10-08T23:44:23.639Z,90.89
2017-10-08T23:46:51.045Z,90.82
2017-10-08T23:49:18.465Z,90.82
2017-10-08T23:51:45.876Z,90.86
2017-10-08T23:54:13.318Z,90.99
2017-10-08T23:56:40.716Z,91.05
2017-10-08T23:59:08.139Z,91.04
